createdAt,value
2023-05-16T00:02:20.891Z,81.15
2023-05-16T00:05:08.184Z,81.21
2023-05-16T00:07:54.315Z,81.04
2023-05-16T00:10:40.949Z,81.15
2023-05-16T00:13:29.776Z,81.22
2023-05-16T00:16:16.154Z,81.09
2023-05-16T00:19:02.806Z,81.08
2023-05-16T00:21:49.447Z,81.18
2023-05-16T00:24:35.981Z,81.21
2023-05-16T00:27:22.716Z,80.98
2023-05-16T00:30:09.918Z,80.91
2023-05-16T00:32:56.646Z,80.97
2023-05-16T00:35:43.356Z,80.99
2023-05-16T00:38:31.320Z,80.92
2023-05-16T00:41:19.862Z,80.84
2023-05-16T00:44:07.015Z,80.79
2023-05-16T00:46:54.417Z,81.02
2023-05-16T00:49:41.892Z,80.95
2023-05-16T00:52:28.892Z,80.70
2023-05-16T00:55:15.922Z,80.86
2023-05-16T00:58:02.776Z,80.83
2023-05-16T01:01:08.892Z,81.01
2023-05-16T01:03:56.281Z,80.96
2023-05-16T01:06:43.852Z,80.89
2023-05-16T01:09:31.375Z,81.12
2023-05-16T01:12:23.988Z,80.87
2023-05-16T01:15:21.811Z,80.79
2023-05-16T01:18:41.065Z,80.89
2023-05-16T01:21:45.220Z,80.96
2023-05-16T01:24:54.416Z,81.14
2023-05-16T01:27:41.484Z,80.99
2023-05-16T01:30:33.269Z,81.04
2023-05-16T01:33:20.028Z,81.08
2023-05-16T01:36:28.985Z,81.08
2023-05-16T01:39:22.645Z,81.00
2023-05-16T01:42:14.381Z,80.95
2023-05-16T01:45:26.344Z,81.13
2023-05-16T01:48:24.233Z,81.15
2023-05-16T01:51:12.692Z,81.11
2023-05-16T01:54:06.254Z,80.94
2023-05-16T01:56:56.108Z,81.17
2023-05-16T01:59:44.267Z,81.13
2023-05-16T02:02:31.726Z,81.28
2023-05-16T02:05:18.517Z,81.29
2023-05-16T02:08:05.657Z,81.00
2023-05-16T02:10:52.794Z,81.09
2023-05-16T02:13:41.132Z,81.00
2023-05-16T02:16:29.563Z,80.99
2023-05-16T02:19:18.499Z,81.18
2023-05-16T02:22:05.017Z,80.97
2023-05-16T02:24:52.964Z,80.77
2023-05-16T02:27:39.152Z,80.61
2023-05-16T02:30:25.662Z,80.29
2023-05-16T02:33:12.969Z,80.28
2023-05-16T02:35:59.781Z,80.32
2023-05-16T02:38:46.186Z,80.25
2023-05-16T02:41:33.216Z,80.01
2023-05-16T02:44:19.538Z,79.98
2023-05-16T02:47:05.878Z,79.94
2023-05-16T02:49:52.517Z,79.87
2023-05-16T02:52:38.869Z,79.96
2023-05-16T02:55:26.387Z,79.85
2023-05-16T02:58:13.072Z,80.07
2023-05-16T03:00:59.899Z,79.95
2023-05-16T03:03:46.623Z,79.98
2023-05-16T03:06:33.228Z,80.05
2023-05-16T03:09:19.665Z,80.01
2023-05-16T03:12:07.177Z,79.88
2023-05-16T03:14:54.778Z,79.86
2023-05-16T03:17:41.833Z,79.74
2023-05-16T03:20:28.702Z,79.74
2023-05-16T03:23:16.453Z,79.93
2023-05-16T03:26:03.191Z,80.10
2023-05-16T03:28:51.615Z,79.91
2023-05-16T03:31:38.389Z,79.95
2023-05-16T03:34:24.953Z,79.89
2023-05-16T03:37:11.642Z,79.83
2023-05-16T03:39:57.948Z,79.68
2023-05-16T03:42:44.727Z,79.75
2023-05-16T03:45:31.746Z,79.41
2023-05-16T03:48:18.163Z,79.46
2023-05-16T03:51:04.663Z,79.45
2023-05-16T03:53:51.109Z,79.19
2023-05-16T03:56:37.375Z,79.19
2023-05-16T03:59:24.245Z,78.90
2023-05-16T04:02:11.020Z,78.68
2023-05-16T04:04:57.485Z,78.38
2023-05-16T04:07:44.163Z,78.49
2023-05-16T04:10:30.515Z,78.51
2023-05-16T04:13:16.981Z,78.34
2023-05-16T04:16:03.822Z,78.53
2023-05-16T04:18:50.362Z,78.29
2023-05-16T04:21:36.896Z,78.27
2023-05-16T04:24:26.519Z,78.03
2023-05-16T04:27:13.182Z,78.08
2023-05-16T04:29:59.976Z,78.08
2023-05-16T04:32:47.388Z,77.91
2023-05-16T04:35:34.182Z,78.01
2023-05-16T04:38:21.172Z,77.59
2023-05-16T04:41:07.797Z,77.78
2023-05-16T04:43:54.404Z,77.42
2023-05-16T04:46:41.744Z,77.39
2023-05-16T04:49:28.576Z,76.96
2023-05-16T04:52:15.357Z,76.96
2023-05-16T04:55:01.951Z,76.94
2023-05-16T04:57:48.399Z,76.69
2023-05-16T05:00:34.634Z,76.56
2023-05-16T05:03:21.775Z,76.32
2023-05-16T05:06:08.602Z,76.72
2023-05-16T05:08:55.042Z,76.54
2023-05-16T05:11:41.581Z,75.78
2023-05-16T05:14:28.042Z,75.53
2023-05-16T05:17:14.639Z,74.98
2023-05-16T05:20:02.861Z,73.58
2023-05-16T05:22:49.523Z,73.58
2023-05-16T05:25:39.721Z,73.26
2023-05-16T05:28:26.541Z,73.05
2023-05-16T05:31:13.252Z,73.35
2023-05-16T05:33:59.889Z,71.88
2023-05-16T05:36:46.609Z,71.59
2023-05-16T05:39:32.785Z,71.83
2023-05-16T05:42:19.254Z,71.54
2023-05-16T05:45:06.524Z,71.62
2023-05-16T05:47:53.108Z,71.87
2023-05-16T05:50:39.996Z,72.01
2023-05-16T05:53:26.706Z,71.70
2023-05-16T05:56:13.306Z,71.88
2023-05-16T05:58:59.995Z,70.82
2023-05-16T06:01:46.939Z,70.60
2023-05-16T06:04:33.346Z,70.00
2023-05-16T06:07:19.883Z,69.02
2023-05-16T06:10:08.608Z,67.36
2023-05-16T06:12:55.138Z,68.57
2023-05-16T06:15:41.849Z,67.90
2023-05-16T06:18:28.299Z,68.56
2023-05-16T06:21:15.272Z,67.33
2023-05-16T06:24:01.606Z,67.42
2023-05-16T06:26:50.298Z,67.18
2023-05-16T06:29:36.702Z,67.99
2023-05-16T06:32:23.042Z,68.40
2023-05-16T06:35:09.828Z,68.06
2023-05-16T06:37:56.166Z,68.08
2023-05-16T06:40:42.992Z,69.15
2023-05-16T06:43:29.429Z,69.14
2023-05-16T06:46:16.598Z,69.17
2023-05-16T06:49:03.488Z,69.48
2023-05-16T06:51:50.142Z,69.98
2023-05-16T06:54:36.698Z,69.80
2023-05-16T06:57:23.629Z,69.05
2023-05-16T07:00:10.365Z,69.28
2023-05-16T07:02:57.006Z,68.93
2023-05-16T07:05:43.971Z,68.17
2023-05-16T07:08:30.493Z,66.79
2023-05-16T07:11:16.958Z,66.07
2023-05-16T07:14:03.650Z,66.84
2023-05-16T07:16:50.161Z,66.13
2023-05-16T07:19:36.541Z,66.28
2023-05-16T07:22:23.579Z,66.75
2023-05-16T07:25:12.932Z,66.22
2023-05-16T07:28:01.155Z,67.02
2023-05-16T07:30:47.595Z,66.55
2023-05-16T07:33:34.160Z,67.15
2023-05-16T07:36:21.297Z,66.55
2023-05-16T07:39:07.599Z,66.29
2023-05-16T07:41:54.297Z,65.12
2023-05-16T07:44:40.857Z,64.41
2023-05-16T07:47:27.462Z,62.97
2023-05-16T07:50:14.076Z,62.53
2023-05-16T07:53:00.461Z,61.01
2023-05-16T07:55:46.972Z,61.18
2023-05-16T07:58:34.379Z,60.99
2023-05-16T08:01:21.210Z,60.21
2023-05-16T08:04:10.920Z,60.54
2023-05-16T08:06:57.731Z,61.61
2023-05-16T08:09:44.296Z,61.15
2023-05-16T08:12:31.037Z,60.45
2023-05-16T08:15:17.515Z,60.88
2023-05-16T08:18:04.187Z,60.59
2023-05-16T08:20:51.912Z,60.30
2023-05-16T08:23:38.636Z,60.74
2023-05-16T08:26:25.319Z,61.44
2023-05-16T08:29:11.938Z,61.03
2023-05-16T08:31:58.173Z,59.31
2023-05-16T08:34:45.435Z,58.74
2023-05-16T08:37:31.869Z,58.53
2023-05-16T08:40:19.385Z,58.29
2023-05-16T08:43:06.795Z,57.15
2023-05-16T08:45:53.678Z,56.48
2023-05-16T08:48:43.574Z,56.20
2023-05-16T08:51:35.559Z,56.20
2023-05-16T08:54:22.859Z,54.07
2023-05-16T08:57:09.943Z,53.86
2023-05-16T08:59:59.336Z,53.40
2023-05-16T09:02:47.085Z,53.93
2023-05-16T09:05:34.171Z,53.85
2023-05-16T09:08:21.336Z,51.93
2023-05-16T09:11:08.327Z,51.89
2023-05-16T09:13:54.973Z,51.80
2023-05-16T09:16:42.189Z,51.30
2023-05-16T09:19:37.181Z,51.21
2023-05-16T09:22:24.523Z,49.77
2023-05-16T09:25:28.550Z,50.08
2023-05-16T09:28:17.237Z,50.37
2023-05-16T09:31:04.382Z,51.06
2023-05-16T09:33:50.921Z,50.85
2023-05-16T09:36:37.760Z,49.08
2023-05-16T09:39:27.988Z,49.98
2023-05-16T09:42:19.443Z,50.57
2023-05-16T09:45:06.588Z,50.96
2023-05-16T09:47:53.434Z,49.96
2023-05-16T09:50:40.123Z,49.23
2023-05-16T09:53:32.351Z,49.58
2023-05-16T09:56:18.728Z,49.14
2023-05-16T09:59:11.412Z,49.72
2023-05-16T10:02:01.918Z,48.48
2023-05-16T10:04:48.649Z,48.18
2023-05-16T10:07:38.258Z,48.74
2023-05-16T10:10:25.464Z,48.42
2023-05-16T10:13:14.422Z,47.92
2023-05-16T10:16:06.835Z,48.08
2023-05-16T10:18:54.547Z,48.51
2023-05-16T10:21:46.837Z,47.43
2023-05-16T10:24:46.681Z,47.04
2023-05-16T10:27:33.712Z,46.56
2023-05-16T10:30:21.392Z,46.38
2023-05-16T10:33:09.324Z,45.75
2023-05-16T10:35:56.859Z,45.80
2023-05-16T10:38:45.847Z,45.48
2023-05-16T10:41:34.124Z,45.01
2023-05-16T10:44:20.950Z,44.66
2023-05-16T10:47:07.863Z,44.00
2023-05-16T10:49:54.819Z,42.40
2023-05-16T10:52:41.907Z,43.06
2023-05-16T10:55:30.604Z,42.50
2023-05-16T10:58:24.999Z,41.40
2023-05-16T11:01:19.040Z,39.78
2023-05-16T11:04:11.576Z,41.05
2023-05-16T11:06:58.925Z,41.18
2023-05-16T11:09:46.541Z,41.80
2023-05-16T11:13:08.054Z,42.03
2023-05-16T11:16:31.271Z,41.71
2023-05-16T11:19:44.405Z,43.01
2023-05-16T11:22:34.489Z,43.27
2023-05-16T11:25:34.917Z,43.49
2023-05-16T11:28:22.853Z,43.74
2023-05-16T11:31:09.570Z,43.68
2023-05-16T11:33:56.946Z,43.36
2023-05-16T11:36:44.867Z,43.92
2023-05-16T11:39:32.742Z,44.14
2023-05-16T11:42:19.527Z,44.07
2023-05-16T11:45:07.788Z,44.03
2023-05-16T11:47:54.727Z,43.94
2023-05-16T11:50:42.460Z,44.29
2023-05-16T11:53:29.206Z,43.99
2023-05-16T11:56:15.658Z,43.63
2023-05-16T11:59:03.335Z,43.83
2023-05-16T12:01:50.584Z,44.31
2023-05-16T12:04:40.846Z,44.82
2023-05-16T12:07:31.102Z,45.60
2023-05-16T12:10:18.068Z,45.93
2023-05-16T12:13:04.788Z,46.19
2023-05-16T12:15:52.888Z,46.02
2023-05-16T12:18:43.367Z,46.35
2023-05-16T12:21:32.027Z,46.37
2023-05-16T12:24:18.631Z,46.50
2023-05-16T12:27:05.347Z,46.64
2023-05-16T12:29:52.624Z,45.90
2023-05-16T12:32:39.928Z,45.60
2023-05-16T12:35:31.191Z,45.41
2023-05-16T12:38:20.177Z,44.76
2023-05-16T12:41:07.208Z,44.54
2023-05-16T12:44:12.210Z,44.80
2023-05-16T12:46:59.232Z,44.89
2023-05-16T12:49:47.005Z,45.27
2023-05-16T12:52:33.835Z,45.46
2023-05-16T12:55:22.319Z,45.10
2023-05-16T12:58:09.605Z,46.02
2023-05-16T13:00:56.656Z,47.35
2023-05-16T13:03:43.162Z,47.67
2023-05-16T13:06:39.796Z,47.61
2023-05-16T13:09:33.057Z,46.95
2023-05-16T13:12:19.776Z,47.30
2023-05-16T13:15:08.013Z,47.76
2023-05-16T13:17:54.465Z,48.11
2023-05-16T13:20:41.036Z,48.13
2023-05-16T13:23:27.524Z,47.81
2023-05-16T13:26:14.245Z,46.63
2023-05-16T13:29:02.216Z,45.45
2023-05-16T13:31:48.645Z,43.26
2023-05-16T13:34:35.378Z,43.54
2023-05-16T13:37:24.399Z,44.28
2023-05-16T13:40:11.246Z,44.23
2023-05-16T13:42:57.576Z,44.50
2023-05-16T13:45:44.303Z,44.86
2023-05-16T13:48:31.171Z,45.18
2023-05-16T13:51:17.508Z,45.49
2023-05-16T13:54:04.422Z,45.33
2023-05-16T13:56:51.285Z,44.74
2023-05-16T14:00:05.614Z,44.33
2023-05-16T14:02:45.241Z,43.89
2023-05-16T14:05:32.854Z,42.91
2023-05-16T14:08:19.649Z,42.10
2023-05-16T14:11:06.290Z,41.22
2023-05-16T14:13:55.554Z,40.90
2023-05-16T14:16:45.922Z,39.58
2023-05-16T14:19:33.174Z,39.88
2023-05-16T14:22:19.937Z,39.49
2023-05-16T14:25:10.012Z,40.62
2023-05-16T14:27:56.671Z,41.50
2023-05-16T14:30:43.909Z,42.20
2023-05-16T14:33:32.850Z,42.59
2023-05-16T14:36:19.437Z,43.10
2023-05-16T14:39:06.446Z,44.08
2023-05-16T14:41:53.118Z,44.47
2023-05-16T14:44:39.817Z,44.80
2023-05-16T14:47:26.584Z,44.46
2023-05-16T14:50:13.293Z,44.55
2023-05-16T14:53:00.230Z,44.72
2023-05-16T14:55:48.163Z,44.08
2023-05-16T14:58:34.952Z,43.53
2023-05-16T15:01:22.677Z,43.24
2023-05-16T15:04:09.324Z,43.61
2023-05-16T15:06:56.203Z,43.73
2023-05-16T15:09:42.903Z,43.03
2023-05-16T15:12:30.405Z,43.63
2023-05-16T15:15:17.433Z,44.01
2023-05-16T15:18:04.392Z,44.40
2023-05-16T15:20:53.190Z,45.11
2023-05-16T15:23:41.971Z,45.31
2023-05-16T15:26:29.210Z,45.71
2023-05-16T15:29:16.974Z,46.42
2023-05-16T15:32:07.178Z,47.07
2023-05-16T15:34:53.480Z,47.63
2023-05-16T15:37:40.286Z,48.04
2023-05-16T15:40:27.587Z,47.95
2023-05-16T15:43:14.538Z,48.24
2023-05-16T15:46:01.696Z,48.96
2023-05-16T15:48:48.967Z,49.66
2023-05-16T15:51:36.615Z,49.85
2023-05-16T15:54:23.187Z,50.81
2023-05-16T15:57:10.087Z,51.19
2023-05-16T15:59:56.631Z,50.92
2023-05-16T16:02:45.374Z,51.25
2023-05-16T16:05:33.088Z,51.48
2023-05-16T16:08:20.549Z,52.13
2023-05-16T16:11:07.489Z,52.73
2023-05-16T16:13:54.201Z,53.18
2023-05-16T16:16:41.352Z,53.66
2023-05-16T16:19:28.214Z,54.82
2023-05-16T16:22:14.829Z,55.48
2023-05-16T16:25:01.422Z,56.15
2023-05-16T16:27:47.824Z,56.41
2023-05-16T16:30:34.674Z,56.68
2023-05-16T16:33:21.527Z,57.06
2023-05-16T16:36:09.615Z,57.14
2023-05-16T16:38:55.978Z,57.80
2023-05-16T16:41:43.278Z,58.38
2023-05-16T16:44:30.444Z,58.29
2023-05-16T16:47:17.712Z,58.20
2023-05-16T16:50:04.980Z,57.89
2023-05-16T16:52:54.295Z,58.17
2023-05-16T16:55:41.208Z,57.68
2023-05-16T16:58:28.161Z,57.59
2023-05-16T17:01:17.629Z,57.71
2023-05-16T17:04:04.466Z,57.61
2023-05-16T17:06:53.876Z,58.10
2023-05-16T17:09:42.371Z,58.06
2023-05-16T17:12:29.399Z,58.12
2023-05-16T17:15:19.929Z,58.38
2023-05-16T17:18:07.798Z,59.15
2023-05-16T17:20:55.937Z,58.91
2023-05-16T17:23:44.144Z,59.41
2023-05-16T17:26:31.716Z,59.39
2023-05-16T17:29:18.369Z,59.87
2023-05-16T17:32:06.337Z,59.90
2023-05-16T17:34:54.665Z,60.75
2023-05-16T17:37:42.428Z,61.07
2023-05-16T17:40:29.069Z,61.53
2023-05-16T17:43:15.649Z,62.55
2023-05-16T17:46:02.515Z,62.62
2023-05-16T17:48:49.166Z,62.48
2023-05-16T17:51:53.467Z,63.51
2023-05-16T17:54:40.055Z,63.76
2023-05-16T17:57:28.229Z,63.86
2023-05-16T18:00:15.480Z,64.04
2023-05-16T18:03:02.381Z,63.23
2023-05-16T18:05:50.481Z,63.53
2023-05-16T18:08:37.436Z,63.69
2023-05-16T18:11:24.892Z,63.58
2023-05-16T18:14:14.558Z,64.08
2023-05-16T18:17:01.451Z,64.11
2023-05-16T18:19:47.944Z,64.17
2023-05-16T18:22:39.105Z,64.11
2023-05-16T18:25:26.657Z,64.37
2023-05-16T18:28:13.678Z,64.21
2023-05-16T18:31:00.081Z,64.60
2023-05-16T18:33:47.170Z,64.29
2023-05-16T18:36:34.364Z,64.39
2023-05-16T18:39:21.094Z,64.34
2023-05-16T18:42:07.926Z,64.18
2023-05-16T18:44:54.474Z,64.01
2023-05-16T18:47:41.444Z,64.18
2023-05-16T18:50:28.443Z,63.99
2023-05-16T18:53:15.321Z,64.24
2023-05-16T18:56:02.131Z,64.38
2023-05-16T18:58:48.901Z,64.33
2023-05-16T19:01:35.814Z,64.29
2023-05-16T19:04:22.432Z,64.36
2023-05-16T19:07:09.429Z,64.29
2023-05-16T19:09:56.354Z,64.81
2023-05-16T19:12:46.683Z,64.49
2023-05-16T19:15:47.123Z,64.74
2023-05-16T19:18:35.337Z,64.83
2023-05-16T19:21:22.283Z,64.61
2023-05-16T19:24:09.338Z,64.69
2023-05-16T19:26:55.798Z,64.98
2023-05-16T19:29:42.517Z,64.86
2023-05-16T19:32:30.320Z,65.18
2023-05-16T19:35:18.587Z,65.00
2023-05-16T19:38:05.183Z,64.94
2023-05-16T19:40:53.312Z,65.25
2023-05-16T19:43:40.615Z,65.49
2023-05-16T19:46:27.295Z,65.95
2023-05-16T19:49:14.894Z,66.38
2023-05-16T19:52:02.983Z,66.42
2023-05-16T19:54:49.352Z,66.61
2023-05-16T19:57:36.860Z,66.73
2023-05-16T20:00:24.155Z,67.11
2023-05-16T20:03:11.458Z,66.87
2023-05-16T20:05:58.219Z,66.89
2023-05-16T20:08:44.928Z,67.15
2023-05-16T20:11:31.542Z,67.29
2023-05-16T20:14:18.338Z,67.18
2023-05-16T20:17:05.225Z,67.37
2023-05-16T20:19:51.955Z,67.59
2023-05-16T20:22:39.531Z,67.67
2023-05-16T20:25:27.103Z,67.58
2023-05-16T20:28:17.309Z,67.52
2023-05-16T20:31:04.150Z,67.67
2023-05-16T20:33:51.192Z,67.70
2023-05-16T20:36:41.984Z,68.05
2023-05-16T20:39:31.972Z,67.55
2023-05-16T20:42:18.919Z,68.00
2023-05-16T20:45:09.086Z,67.59
2023-05-16T20:47:57.300Z,67.60
2023-05-16T20:50:44.186Z,67.37
2023-05-16T20:53:31.208Z,67.94
2023-05-16T20:56:17.997Z,67.80
2023-05-16T20:59:14.831Z,67.96
2023-05-16T21:02:06.187Z,67.94
2023-05-16T21:05:02.164Z,67.99
2023-05-16T21:07:57.711Z,67.93
2023-05-16T21:10:45.873Z,67.89
2023-05-16T21:13:43.307Z,67.53
2023-05-16T21:16:32.749Z,67.59
2023-05-16T21:19:22.450Z,67.32
2023-05-16T21:22:17.543Z,67.34
2023-05-16T21:25:05.927Z,67.12
2023-05-16T21:27:54.816Z,67.41
2023-05-16T21:30:42.938Z,67.52
2023-05-16T21:33:40.801Z,67.49
2023-05-16T21:36:28.210Z,67.62
2023-05-16T21:39:17.612Z,67.59
2023-05-16T21:42:08.463Z,67.82
2023-05-16T21:45:02.585Z,67.87
2023-05-16T21:47:57.505Z,68.11
2023-05-16T21:50:44.156Z,67.98
2023-05-16T21:56:40.025Z,68.30
2023-05-16T21:59:30.995Z,68.36
2023-05-16T22:02:22.964Z,68.29
2023-05-16T22:05:14.988Z,68.62
2023-05-16T22:08:07.045Z,68.79
2023-05-16T22:11:02.566Z,68.77
2023-05-16T22:13:53.796Z,68.62
2023-05-16T22:16:49.317Z,68.71
2023-05-16T22:19:56.244Z,68.67
2023-05-16T22:23:01.584Z,68.67
2023-05-16T22:25:48.830Z,68.91
2023-05-16T22:28:45.963Z,69.00
2023-05-16T22:31:32.469Z,68.87
2023-05-16T22:34:19.019Z,68.72
2023-05-16T22:37:08.963Z,68.87
2023-05-16T22:40:04.010Z,68.77
2023-05-16T22:42:53.998Z,68.88
2023-05-16T22:45:47.682Z,68.78
2023-05-16T22:48:38.054Z,68.91
2023-05-16T22:51:28.867Z,68.94
2023-05-16T22:54:18.375Z,68.94
2023-05-16T22:57:07.199Z,69.01
2023-05-16T22:59:57.694Z,69.20
2023-05-16T23:02:47.988Z,69.40
2023-05-16T23:05:37.937Z,69.45
2023-05-16T23:08:29.392Z,69.40
2023-05-16T23:11:20.491Z,69.36
2023-05-16T23:14:10.148Z,69.33
2023-05-16T23:16:58.629Z,69.19
2023-05-16T23:19:47.219Z,69.07
2023-05-16T23:22:46.779Z,69.13
2023-05-16T23:26:04.437Z,69.04
2023-05-16T23:28:54.403Z,69.18
2023-05-16T23:31:50.103Z,69.10
2023-05-16T23:34:36.943Z,69.51
2023-05-16T23:37:26.629Z,69.34
2023-05-16T23:40:18.447Z,69.40
2023-05-16T23:43:06.295Z,69.71
2023-05-16T23:45:58.426Z,69.64
2023-05-16T23:48:47.349Z,69.72
2023-05-16T23:51:55.934Z,69.70
2023-05-16T23:54:46.937Z,69.62
2023-05-16T23:57:33.495Z,69.60
